sensor_id;sensor_type;location;lat;lon;timestamp;temperature;humidity
12655;DHT22;6392;44.644;11.448;2023-04-24T00:01:35;19.50;99.90
12655;DHT22;6392;44.644;11.448;2023-04-24T00:04:04;19.50;99.90
12655;DHT22;6392;44.644;11.448;2023-04-24T00:06:32;19.40;99.90
12655;DHT22;6392;44.644;11.448;2023-04-24T00:08:59;19.40;99.90
12655;DHT22;6392;44.644;11.448;2023-04-24T00:11:26;19.40;99.90
12655;DHT22;6392;44.644;11.448;2023-04-24T00:13:53;19.30;99.90
12655;DHT22;6392;44.644;11.448;2023-04-24T00:16:21;19.30;99.90
12655;DHT22;6392;44.644;11.448;2023-04-24T00:18:48;19.30;99.90
12655;DHT22;6392;44.644;11.448;2023-04-24T00:21:17;19.30;99.90
12655;DHT22;6392;44.644;11.448;2023-04-24T00:23:44;19.20;99.90
12655;DHT22;6392;44.644;11.448;2023-04-24T00:26:11;19.20;99.90
12655;DHT22;6392;44.644;11.448;2023-04-24T00:28:38;19.20;99.90
12655;DHT22;6392;44.644;11.448;2023-04-24T00:31:04;19.20;99.90
12655;DHT22;6392;44.644;11.448;2023-04-24T00:33:33;19.10;99.90
12655;DHT22;6392;44.644;11.448;2023-04-24T00:35:59;19.10;99.90
12655;DHT22;6392;44.644;11.448;2023-04-24T00:38:26;19.10;99.90
12655;DHT22;6392;44.644;11.448;2023-04-24T00:40:53;19.00;99.90
12655;DHT22;6392;44.644;11.448;2023-04-24T00:43:20;19.00;99.90
12655;DHT22;6392;44.644;11.448;2023-04-24T00:45:47;18.90;99.90
12655;DHT22;6392;44.644;11.448;2023-04-24T00:48:14;18.90;99.90
12655;DHT22;6392;44.644;11.448;2023-04-24T00:50:42;18.90;99.90
12655;DHT22;6392;44.644;11.448;2023-04-24T00:53:09;18.90;99.90
12655;DHT22;6392;44.644;11.448;2023-04-24T00:55:36;18.90;99.90
12655;DHT22;6392;44.644;11.448;2023-04-24T00:58:04;18.90;99.90
12655;DHT22;6392;44.644;11.448;2023-04-24T01:00:30;18.90;99.90
12655;DHT22;6392;44.644;11.448;2023-04-24T01:02:57;18.90;99.90
12655;DHT22;6392;44.644;11.448;2023-04-24T01:05:25;18.90;99.90
12655;DHT22;6392;44.644;11.448;2023-04-24T01:07:53;18.90;99.90
12655;DHT22;6392;44.644;11.448;2023-04-24T01:10:20;19.00;99.90
12655;DHT22;6392;44.644;11.448;2023-04-24T01:12:47;18.90;99.90
12655;DHT22;6392;44.644;11.448;2023-04-24T01:15:14;18.90;99.90
12655;DHT22;6392;44.644;11.448;2023-04-24T01:17:40;18.90;99.90
12655;DHT22;6392;44.644;11.448;2023-04-24T01:20:08;18.80;99.90
12655;DHT22;6392;44.644;11.448;2023-04-24T01:22:36;18.80;99.90
12655;DHT22;6392;44.644;11.448;2023-04-24T01:25:03;18.70;99.90
12655;DHT22;6392;44.644;11.448;2023-04-24T01:27:31;18.70;99.90
12655;DHT22;6392;44.644;11.448;2023-04-24T01:29:58;18.60;99.90
12655;DHT22;6392;44.644;11.448;2023-04-24T01:32:24;18.50;99.90
12655;DHT22;6392;44.644;11.448;2023-04-24T01:34:51;18.50;99.90
12655;DHT22;6392;44.644;11.448;2023-04-24T01:37:18;18.50;99.90
12655;DHT22;6392;44.644;11.448;2023-04-24T01:39:46;18.50;99.90
12655;DHT22;6392;44.644;11.448;2023-04-24T01:42:13;18.50;99.90
12655;DHT22;6392;44.644;11.448;2023-04-24T01:44:40;18.50;99.90
12655;DHT22;6392;44.644;11.448;2023-04-24T01:47:08;18.40;99.90
12655;DHT22;6392;44.644;11.448;2023-04-24T01:49:35;18.40;99.90
12655;DHT22;6392;44.644;11.448;2023-04-24T01:52:01;18.40;99.90
12655;DHT22;6392;44.644;11.448;2023-04-24T01:54:28;18.30;99.90
12655;DHT22;6392;44.644;11.448;2023-04-24T01:56:56;18.30;99.90
12655;DHT22;6392;44.644;11.448;2023-04-24T01:59:23;18.30;99.90
12655;DHT22;6392;44.644;11.448;2023-04-24T02:01:51;18.30;99.90
12655;DHT22;6392;44.644;11.448;2023-04-24T02:04:18;18.30;99.90
12655;DHT22;6392;44.644;11.448;2023-04-24T02:06:45;18.30;99.90
12655;DHT22;6392;44.644;11.448;2023-04-24T02:09:11;18.30;99.90
12655;DHT22;6392;44.644;11.448;2023-04-24T02:11:38;18.30;99.90
12655;DHT22;6392;44.644;11.448;2023-04-24T02:14:06;18.30;99.90
12655;DHT22;6392;44.644;11.448;2023-04-24T02:16:33;18.30;99.90
12655;DHT22;6392;44.644;11.448;2023-04-24T02:19:01;18.40;99.90
12655;DHT22;6392;44.644;11.448;2023-04-24T02:21:28;18.40;99.90
12655;DHT22;6392;44.644;11.448;2023-04-24T02:23:56;18.40;99.90
12655;DHT22;6392;44.644;11.448;2023-04-24T02:26:22;18.40;99.90
12655;DHT22;6392;44.644;11.448;2023-04-24T02:28:50;18.40;99.90
12655;DHT22;6392;44.644;11.448;2023-04-24T02:31:18;18.40;99.90
12655;DHT22;6392;44.644;11.448;2023-04-24T02:33:45;18.40;99.90
12655;DHT22;6392;44.644;11.448;2023-04-24T02:36:12;18.50;99.90
12655;DHT22;6392;44.644;11.448;2023-04-24T02:38:39;18.50;99.90
12655;DHT22;6392;44.644;11.448;2023-04-24T02:41:06;18.50;99.90
12655;DHT22;6392;44.644;11.448;2023-04-24T02:43:33;18.50;99.90
12655;DHT22;6392;44.644;11.448;2023-04-24T02:45:59;18.40;99.90
12655;DHT22;6392;44.644;11.448;2023-04-24T02:48:28;18.40;99.90
12655;DHT22;6392;44.644;11.448;2023-04-24T02:50:55;18.30;99.90
12655;DHT22;6392;44.644;11.448;2023-04-24T02:53:22;18.30;99.90
12655;DHT22;6392;44.644;11.448;2023-04-24T02:55:49;18.30;99.90
12655;DHT22;6392;44.644;11.448;2023-04-24T02:58:16;18.30;99.90
12655;DHT22;6392;44.644;11.448;2023-04-24T03:00:45;18.30;99.90
12655;DHT22;6392;44.644;11.448;2023-04-24T03:03:12;18.30;99.90
12655;DHT22;6392;44.644;11.448;2023-04-24T03:05:40;18.30;99.90
12655;DHT22;6392;44.644;11.448;2023-04-24T03:08:07;18.30;99.90
12655;DHT22;6392;44.644;11.448;2023-04-24T03:10:33;18.30;99.90
12655;DHT22;6392;44.644;11.448;2023-04-24T03:13:00;18.30;99.90
12655;DHT22;6392;44.644;11.448;2023-04-24T03:15:27;18.30;99.90
12655;DHT22;6392;44.644;11.448;2023-04-24T03:17:54;18.30;99.90
12655;DHT22;6392;44.644;11.448;2023-04-24T03:20:21;18.30;99.90
12655;DHT22;6392;44.644;11.448;2023-04-24T03:22:49;18.20;99.90
12655;DHT22;6392;44.644;11.448;2023-04-24T03:25:16;18.20;99.90
12655;DHT22;6392;44.644;11.448;2023-04-24T03:27:43;18.20;99.90
12655;DHT22;6392;44.644;11.448;2023-04-24T03:30:10;18.10;99.90
12655;DHT22;6392;44.644;11.448;2023-04-24T03:32:37;18.10;99.90
12655;DHT22;6392;44.644;11.448;2023-04-24T03:35:05;18.00;99.90
12655;DHT22;6392;44.644;11.448;2023-04-24T03:37:32;18.00;99.90
12655;DHT22;6392;44.644;11.448;2023-04-24T03:40:00;18.00;99.90
12655;DHT22;6392;44.644;11.448;2023-04-24T03:42:27;18.00;99.90
12655;DHT22;6392;44.644;11.448;2023-04-24T03:44:54;18.00;99.90
12655;DHT22;6392;44.644;11.448;2023-04-24T03:47:21;18.00;99.90
12655;DHT22;6392;44.644;11.448;2023-04-24T03:49:47;18.00;99.90
12655;DHT22;6392;44.644;11.448;2023-04-24T03:52:14;18.00;99.90
12655;DHT22;6392;44.644;11.448;2023-04-24T03:54:41;17.90;99.90
12655;DHT22;6392;44.644;11.448;2023-04-24T03:57:09;17.90;99.90
12655;DHT22;6392;44.644;11.448;2023-04-24T03:59:36;17.90;99.90
12655;DHT22;6392;44.644;11.448;2023-04-24T04:02:03;17.90;99.90
12655;DHT22;6392;44.644;11.448;2023-04-24T04:04:29;17.90;99.90
12655;DHT22;6392;44.644;11.448;2023-04-24T04:06:56;17.90;99.90
12655;DHT22;6392;44.644;11.448;2023-04-24T04:09:26;17.90;99.90
12655;DHT22;6392;44.644;11.448;2023-04-24T04:11:53;17.90;99.90
12655;DHT22;6392;44.644;11.448;2023-04-24T04:14:21;17.90;99.90
12655;DHT22;6392;44.644;11.448;2023-04-24T04:16:48;17.90;99.90
12655;DHT22;6392;44.644;11.448;2023-04-24T04:19:15;17.90;99.90
12655;DHT22;6392;44.644;11.448;2023-04-24T04:21:42;17.90;99.90
12655;DHT22;6392;44.644;11.448;2023-04-24T04:24:11;17.90;99.90
12655;DHT22;6392;44.644;11.448;2023-04-24T04:26:38;17.80;99.90
12655;DHT22;6392;44.644;11.448;2023-04-24T04:29:05;17.90;99.90
12655;DHT22;6392;44.644;11.448;2023-04-24T04:31:34;17.80;99.90
12655;DHT22;6392;44.644;11.448;2023-04-24T04:34:00;17.80;99.90
12655;DHT22;6392;44.644;11.448;2023-04-24T04:36:28;17.80;99.90
12655;DHT22;6392;44.644;11.448;2023-04-24T04:38:55;17.80;99.90
12655;DHT22;6392;44.644;11.448;2023-04-24T04:41:21;17.80;99.90
12655;DHT22;6392;44.644;11.448;2023-04-24T04:43:49;17.80;99.90
12655;DHT22;6392;44.644;11.448;2023-04-24T04:46:16;17.80;99.90
12655;DHT22;6392;44.644;11.448;2023-04-24T04:48:44;17.80;99.90
12655;DHT22;6392;44.644;11.448;2023-04-24T04:51:11;17.70;99.90
12655;DHT22;6392;44.644;11.448;2023-04-24T04:53:38;17.70;99.90
12655;DHT22;6392;44.644;11.448;2023-04-24T04:56:05;17.70;99.90
12655;DHT22;6392;44.644;11.448;2023-04-24T04:58:31;17.70;99.90
12655;DHT22;6392;44.644;11.448;2023-04-24T05:00:58;17.70;99.90
12655;DHT22;6392;44.644;11.448;2023-04-24T05:03:25;17.70;99.90
12655;DHT22;6392;44.644;11.448;2023-04-24T05:05:53;17.70;99.90
12655;DHT22;6392;44.644;11.448;2023-04-24T05:08:20;17.70;99.90
12655;DHT22;6392;44.644;11.448;2023-04-24T05:10:47;17.70;99.90
12655;DHT22;6392;44.644;11.448;2023-04-24T05:13:14;17.70;99.90
12655;DHT22;6392;44.644;11.448;2023-04-24T05:15:40;17.70;99.90
12655;DHT22;6392;44.644;11.448;2023-04-24T05:18:07;17.50;99.90
12655;DHT22;6392;44.644;11.448;2023-04-24T05:20:34;17.50;99.90
12655;DHT22;6392;44.644;11.448;2023-04-24T05:23:02;17.40;99.90
12655;DHT22;6392;44.644;11.448;2023-04-24T05:25:29;17.30;99.90
12655;DHT22;6392;44.644;11.448;2023-04-24T05:27:57;17.20;99.90
12655;DHT22;6392;44.644;11.448;2023-04-24T05:30:24;17.20;99.90
12655;DHT22;6392;44.644;11.448;2023-04-24T05:32:51;17.10;99.90
12655;DHT22;6392;44.644;11.448;2023-04-24T05:35:17;17.10;99.90
12655;DHT22;6392;44.644;11.448;2023-04-24T05:37:45;17.10;99.90
12655;DHT22;6392;44.644;11.448;2023-04-24T05:40:14;17.10;99.90
12655;DHT22;6392;44.644;11.448;2023-04-24T05:42:40;17.20;99.90
12655;DHT22;6392;44.644;11.448;2023-04-24T05:45:07;17.20;99.90
12655;DHT22;6392;44.644;11.448;2023-04-24T05:47:35;17.20;99.90
12655;DHT22;6392;44.644;11.448;2023-04-24T05:50:02;17.20;99.90
12655;DHT22;6392;44.644;11.448;2023-04-24T05:52:29;17.20;99.90
12655;DHT22;6392;44.644;11.448;2023-04-24T05:54:55;17.20;99.90
12655;DHT22;6392;44.644;11.448;2023-04-24T05:57:24;17.30;99.90
12655;DHT22;6392;44.644;11.448;2023-04-24T05:59:51;17.30;99.90
12655;DHT22;6392;44.644;11.448;2023-04-24T06:02:17;17.20;99.90
12655;DHT22;6392;44.644;11.448;2023-04-24T06:04:44;17.20;99.90
12655;DHT22;6392;44.644;11.448;2023-04-24T06:07:11;17.20;99.90
12655;DHT22;6392;44.644;11.448;2023-04-24T06:09:38;17.20;99.90
12655;DHT22;6392;44.644;11.448;2023-04-24T06:12:05;17.20;99.90
12655;DHT22;6392;44.644;11.448;2023-04-24T06:14:34;17.20;99.90
12655;DHT22;6392;44.644;11.448;2023-04-24T06:17:01;17.20;99.90
12655;DHT22;6392;44.644;11.448;2023-04-24T06:19:28;17.30;99.90
12655;DHT22;6392;44.644;11.448;2023-04-24T06:21:55;17.30;99.90
12655;DHT22;6392;44.644;11.448;2023-04-24T06:24:22;17.30;99.90
12655;DHT22;6392;44.644;11.448;2023-04-24T06:26:48;17.30;99.90
12655;DHT22;6392;44.644;11.448;2023-04-24T06:29:16;17.30;99.90
12655;DHT22;6392;44.644;11.448;2023-04-24T06:31:44;17.30;99.90
12655;DHT22;6392;44.644;11.448;2023-04-24T06:34:11;17.30;99.90
12655;DHT22;6392;44.644;11.448;2023-04-24T06:36:38;17.20;99.90
12655;DHT22;6392;44.644;11.448;2023-04-24T06:39:05;17.30;99.90
12655;DHT22;6392;44.644;11.448;2023-04-24T06:41:32;17.30;99.90
12655;DHT22;6392;44.644;11.448;2023-04-24T06:43:59;17.30;99.90
12655;DHT22;6392;44.644;11.448;2023-04-24T06:46:25;17.40;99.90
12655;DHT22;6392;44.644;11.448;2023-04-24T06:48:54;17.40;99.90
12655;DHT22;6392;44.644;11.448;2023-04-24T06:51:22;17.50;99.90
12655;DHT22;6392;44.644;11.448;2023-04-24T06:53:49;17.60;99.90
12655;DHT22;6392;44.644;11.448;2023-04-24T06:56:16;17.70;99.90
12655;DHT22;6392;44.644;11.448;2023-04-24T06:58:43;17.70;99.90
12655;DHT22;6392;44.644;11.448;2023-04-24T07:01:10;17.70;99.90
12655;DHT22;6392;44.644;11.448;2023-04-24T07:03:37;17.70;99.90
12655;DHT22;6392;44.644;11.448;2023-04-24T07:06:05;17.70;99.90
12655;DHT22;6392;44.644;11.448;2023-04-24T07:08:32;17.70;99.90
12655;DHT22;6392;44.644;11.448;2023-04-24T07:10:59;17.70;99.90
12655;DHT22;6392;44.644;11.448;2023-04-24T07:13:26;17.70;99.90
12655;DHT22;6392;44.644;11.448;2023-04-24T07:15:53;17.70;99.90
12655;DHT22;6392;44.644;11.448;2023-04-24T07:18:20;17.70;99.90
12655;DHT22;6392;44.644;11.448;2023-04-24T07:20:47;17.70;99.90
12655;DHT22;6392;44.644;11.448;2023-04-24T07:23:16;17.70;99.90
12655;DHT22;6392;44.644;11.448;2023-04-24T07:25:43;17.80;99.90
12655;DHT22;6392;44.644;11.448;2023-04-24T07:28:10;17.80;99.90
12655;DHT22;6392;44.644;11.448;2023-04-24T07:30:37;17.80;99.90
12655;DHT22;6392;44.644;11.448;2023-04-24T07:33:03;17.80;99.90
12655;DHT22;6392;44.644;11.448;2023-04-24T07:35:32;17.90;99.90
12655;DHT22;6392;44.644;11.448;2023-04-24T07:37:59;17.90;99.90
12655;DHT22;6392;44.644;11.448;2023-04-24T07:40:27;17.90;99.90
12655;DHT22;6392;44.644;11.448;2023-04-24T07:42:54;17.90;99.90
12655;DHT22;6392;44.644;11.448;2023-04-24T07:45:21;18.00;99.90
12655;DHT22;6392;44.644;11.448;2023-04-24T07:47:48;18.00;99.90
12655;DHT22;6392;44.644;11.448;2023-04-24T07:50:15;18.10;99.90
12655;DHT22;6392;44.644;11.448;2023-04-24T07:52:41;18.10;99.90
12655;DHT22;6392;44.644;11.448;2023-04-24T07:55:08;18.10;99.90
12655;DHT22;6392;44.644;11.448;2023-04-24T07:57:37;18.20;99.90
12655;DHT22;6392;44.644;11.448;2023-04-24T08:00:04;18.20;99.90
12655;DHT22;6392;44.644;11.448;2023-04-24T08:02:31;18.30;99.90
12655;DHT22;6392;44.644;11.448;2023-04-24T08:04:58;18.30;99.90
12655;DHT22;6392;44.644;11.448;2023-04-24T08:07:24;18.20;99.90
12655;DHT22;6392;44.644;11.448;2023-04-24T08:09:51;18.30;99.90
12655;DHT22;6392;44.644;11.448;2023-04-24T08:12:18;18.30;99.90
12655;DHT22;6392;44.644;11.448;2023-04-24T08:14:46;18.30;99.90
12655;DHT22;6392;44.644;11.448;2023-04-24T08:17:13;18.40;99.90
12655;DHT22;6392;44.644;11.448;2023-04-24T08:19:40;18.30;99.90
12655;DHT22;6392;44.644;11.448;2023-04-24T08:22:08;18.30;99.90
12655;DHT22;6392;44.644;11.448;2023-04-24T08:24:35;18.30;99.90
12655;DHT22;6392;44.644;11.448;2023-04-24T08:27:01;18.30;99.90
12655;DHT22;6392;44.644;11.448;2023-04-24T08:29:28;18.40;99.90
12655;DHT22;6392;44.644;11.448;2023-04-24T08:31:57;18.40;99.90
12655;DHT22;6392;44.644;11.448;2023-04-24T08:34:24;18.40;99.90
12655;DHT22;6392;44.644;11.448;2023-04-24T08:36:50;18.40;99.90
12655;DHT22;6392;44.644;11.448;2023-04-24T08:39:17;18.40;99.90
12655;DHT22;6392;44.644;11.448;2023-04-24T08:41:44;18.50;99.90
12655;DHT22;6392;44.644;11.448;2023-04-24T08:44:12;18.60;99.90
12655;DHT22;6392;44.644;11.448;2023-04-24T08:46:40;18.70;99.90
12655;DHT22;6392;44.644;11.448;2023-04-24T08:49:10;18.80;99.90
12655;DHT22;6392;44.644;11.448;2023-04-24T08:51:37;18.80;99.90
12655;DHT22;6392;44.644;11.448;2023-04-24T08:54:04;18.80;99.90
12655;DHT22;6392;44.644;11.448;2023-04-24T08:56:32;18.90;99.90
12655;DHT22;6392;44.644;11.448;2023-04-24T08:59:00;18.90;99.90
12655;DHT22;6392;44.644;11.448;2023-04-24T09:01:27;19.00;99.90
12655;DHT22;6392;44.644;11.448;2023-04-24T09:03:54;19.00;99.90
12655;DHT22;6392;44.644;11.448;2023-04-24T09:06:23;19.10;99.90
12655;DHT22;6392;44.644;11.448;2023-04-24T09:08:50;19.20;99.90
12655;DHT22;6392;44.644;11.448;2023-04-24T09:11:18;19.30;99.90
12655;DHT22;6392;44.644;11.448;2023-04-24T09:13:45;19.30;99.90
12655;DHT22;6392;44.644;11.448;2023-04-24T09:16:12;19.20;99.90
12655;DHT22;6392;44.644;11.448;2023-04-24T09:18:40;19.20;99.90
12655;DHT22;6392;44.644;11.448;2023-04-24T09:21:07;19.00;99.90
12655;DHT22;6392;44.644;11.448;2023-04-24T09:23:35;18.80;99.90
12655;DHT22;6392;44.644;11.448;2023-04-24T09:26:03;18.60;99.90
12655;DHT22;6392;44.644;11.448;2023-04-24T09:28:31;18.40;99.90
12655;DHT22;6392;44.644;11.448;2023-04-24T09:31:02;18.30;99.90
12655;DHT22;6392;44.644;11.448;2023-04-24T09:33:29;18.10;99.90
12655;DHT22;6392;44.644;11.448;2023-04-24T09:35:55;17.90;99.90
12655;DHT22;6392;44.644;11.448;2023-04-24T09:38:30;17.70;99.90
12655;DHT22;6392;44.644;11.448;2023-04-24T09:41:00;17.50;99.90
12655;DHT22;6392;44.644;11.448;2023-04-24T09:43:28;17.20;99.90
12655;DHT22;6392;44.644;11.448;2023-04-24T09:45:55;16.90;99.90
12655;DHT22;6392;44.644;11.448;2023-04-24T09:48:29;16.80;99.90
12655;DHT22;6392;44.644;11.448;2023-04-24T09:50:56;16.90;99.90
12655;DHT22;6392;44.644;11.448;2023-04-24T09:53:23;16.90;99.90
12655;DHT22;6392;44.644;11.448;2023-04-24T09:55:50;16.80;99.90
12655;DHT22;6392;44.644;11.448;2023-04-24T09:58:19;16.80;99.90
12655;DHT22;6392;44.644;11.448;2023-04-24T10:00:53;16.80;99.90
12655;DHT22;6392;44.644;11.448;2023-04-24T10:03:20;16.90;99.90
12655;DHT22;6392;44.644;11.448;2023-04-24T10:05:47;17.00;99.90
12655;DHT22;6392;44.644;11.448;2023-04-24T10:08:13;17.10;99.90
12655;DHT22;6392;44.644;11.448;2023-04-24T10:10:41;17.20;99.90
12655;DHT22;6392;44.644;11.448;2023-04-24T10:13:09;17.30;99.90
12655;DHT22;6392;44.644;11.448;2023-04-24T10:15:38;17.30;99.90
12655;DHT22;6392;44.644;11.448;2023-04-24T10:18:05;17.30;99.90
12655;DHT22;6392;44.644;11.448;2023-04-24T10:20:33;17.30;99.90
12655;DHT22;6392;44.644;11.448;2023-04-24T10:23:00;17.40;99.90
12655;DHT22;6392;44.644;11.448;2023-04-24T10:25:27;17.40;99.90
12655;DHT22;6392;44.644;11.448;2023-04-24T10:27:55;17.40;99.90
12655;DHT22;6392;44.644;11.448;2023-04-24T10:30:25;17.50;99.90
12655;DHT22;6392;44.644;11.448;2023-04-24T10:32:53;17.50;99.90
12655;DHT22;6392;44.644;11.448;2023-04-24T10:35:21;17.70;99.90
12655;DHT22;6392;44.644;11.448;2023-04-24T10:37:53;17.80;99.90
12655;DHT22;6392;44.644;11.448;2023-04-24T10:40:25;17.90;99.90
12655;DHT22;6392;44.644;11.448;2023-04-24T10:42:52;18.00;99.90
12655;DHT22;6392;44.644;11.448;2023-04-24T10:45:19;18.10;99.90
12655;DHT22;6392;44.644;11.448;2023-04-24T10:47:51;18.20;99.90
12655;DHT22;6392;44.644;11.448;2023-04-24T10:50:19;18.30;99.90
12655;DHT22;6392;44.644;11.448;2023-04-24T10:52:46;18.50;99.90
12655;DHT22;6392;44.644;11.448;2023-04-24T10:55:13;18.50;99.90
12655;DHT22;6392;44.644;11.448;2023-04-24T11:00:24;18.60;99.90
12655;DHT22;6392;44.644;11.448;2023-04-24T11:02:53;18.70;99.90
12655;DHT22;6392;44.644;11.448;2023-04-24T11:05:22;18.70;99.90
12655;DHT22;6392;44.644;11.448;2023-04-24T11:10:34;18.80;99.90
12655;DHT22;6392;44.644;11.448;2023-04-24T11:13:04;18.90;99.90
12655;DHT22;6392;44.644;11.448;2023-04-24T11:15:30;18.90;99.90
12655;DHT22;6392;44.644;11.448;2023-04-24T11:17:57;18.90;99.90
12655;DHT22;6392;44.644;11.448;2023-04-24T11:20:26;18.90;99.90
12655;DHT22;6392;44.644;11.448;2023-04-24T11:22:53;19.00;99.90
12655;DHT22;6392;44.644;11.448;2023-04-24T11:25:20;19.00;99.90
12655;DHT22;6392;44.644;11.448;2023-04-24T11:27:47;19.10;99.90
12655;DHT22;6392;44.644;11.448;2023-04-24T11:30:17;19.10;99.90
12655;DHT22;6392;44.644;11.448;2023-04-24T11:32:46;19.20;99.90
12655;DHT22;6392;44.644;11.448;2023-04-24T11:35:14;19.30;99.90
12655;DHT22;6392;44.644;11.448;2023-04-24T11:37:43;19.30;99.90
12655;DHT22;6392;44.644;11.448;2023-04-24T11:40:11;19.40;99.90
12655;DHT22;6392;44.644;11.448;2023-04-24T11:42:39;19.50;99.90
12655;DHT22;6392;44.644;11.448;2023-04-24T11:45:07;19.60;99.90
12655;DHT22;6392;44.644;11.448;2023-04-24T11:47:34;19.60;99.90
12655;DHT22;6392;44.644;11.448;2023-04-24T11:50:01;19.70;99.90
12655;DHT22;6392;44.644;11.448;2023-04-24T11:52:28;19.80;99.90
12655;DHT22;6392;44.644;11.448;2023-04-24T11:54:57;19.90;99.90
12655;DHT22;6392;44.644;11.448;2023-04-24T11:57:24;19.90;99.90
12655;DHT22;6392;44.644;11.448;2023-04-24T11:59:53;20.00;99.90
12655;DHT22;6392;44.644;11.448;2023-04-24T12:02:20;20.10;99.90
12655;DHT22;6392;44.644;11.448;2023-04-24T12:04:48;20.20;99.90
12655;DHT22;6392;44.644;11.448;2023-04-24T12:07:15;20.30;99.90
12655;DHT22;6392;44.644;11.448;2023-04-24T12:09:42;20.40;99.90
12655;DHT22;6392;44.644;11.448;2023-04-24T12:12:10;20.50;99.90
12655;DHT22;6392;44.644;11.448;2023-04-24T12:14:44;20.60;99.90
12655;DHT22;6392;44.644;11.448;2023-04-24T12:17:11;20.80;99.90
12655;DHT22;6392;44.644;11.448;2023-04-24T12:19:37;21.00;99.90
12655;DHT22;6392;44.644;11.448;2023-04-24T12:22:05;21.10;99.90
12655;DHT22;6392;44.644;11.448;2023-04-24T12:24:32;21.10;99.90
12655;DHT22;6392;44.644;11.448;2023-04-24T12:26:59;21.30;99.90
12655;DHT22;6392;44.644;11.448;2023-04-24T12:29:28;21.40;99.90
12655;DHT22;6392;44.644;11.448;2023-04-24T12:31:54;21.40;99.90
12655;DHT22;6392;44.644;11.448;2023-04-24T12:34:22;21.50;99.90
12655;DHT22;6392;44.644;11.448;2023-04-24T12:36:50;21.60;99.90
12655;DHT22;6392;44.644;11.448;2023-04-24T12:39:17;21.70;99.90
12655;DHT22;6392;44.644;11.448;2023-04-24T12:41:54;21.80;99.90
12655;DHT22;6392;44.644;11.448;2023-04-24T12:44:29;21.90;99.90
12655;DHT22;6392;44.644;11.448;2023-04-24T12:46:57;22.10;99.90
12655;DHT22;6392;44.644;11.448;2023-04-24T12:49:24;22.20;99.90
12655;DHT22;6392;44.644;11.448;2023-04-24T12:51:51;22.20;99.90
12655;DHT22;6392;44.644;11.448;2023-04-24T12:54:17;22.30;99.90
12655;DHT22;6392;44.644;11.448;2023-04-24T12:56:44;22.50;99.90
12655;DHT22;6392;44.644;11.448;2023-04-24T12:59:11;22.50;99.90
12655;DHT22;6392;44.644;11.448;2023-04-24T13:01:44;22.50;99.90
12655;DHT22;6392;44.644;11.448;2023-04-24T13:04:11;22.50;99.90
12655;DHT22;6392;44.644;11.448;2023-04-24T13:06:38;22.70;99.90
12655;DHT22;6392;44.644;11.448;2023-04-24T13:09:04;22.80;99.90
12655;DHT22;6392;44.644;11.448;2023-04-24T13:11:31;22.90;99.90
12655;DHT22;6392;44.644;11.448;2023-04-24T13:13:58;23.00;99.90
12655;DHT22;6392;44.644;11.448;2023-04-24T13:16:25;23.00;99.90
12655;DHT22;6392;44.644;11.448;2023-04-24T13:18:53;22.90;99.90
12655;DHT22;6392;44.644;11.448;2023-04-24T13:21:20;22.90;99.90
12655;DHT22;6392;44.644;11.448;2023-04-24T13:23:47;22.80;99.90
12655;DHT22;6392;44.644;11.448;2023-04-24T13:26:14;22.70;99.90
12655;DHT22;6392;44.644;11.448;2023-04-24T13:28:41;22.90;99.90
12655;DHT22;6392;44.644;11.448;2023-04-24T13:31:08;23.10;99.90
12655;DHT22;6392;44.644;11.448;2023-04-24T13:33:35;23.40;99.90
12655;DHT22;6392;44.644;11.448;2023-04-24T13:36:03;23.60;99.90
12655;DHT22;6392;44.644;11.448;2023-04-24T13:38:30;23.80;99.90
12655;DHT22;6392;44.644;11.448;2023-04-24T13:40:57;23.70;99.90
12655;DHT22;6392;44.644;11.448;2023-04-24T13:43:24;23.90;99.90
12655;DHT22;6392;44.644;11.448;2023-04-24T13:45:50;24.00;99.90
12655;DHT22;6392;44.644;11.448;2023-04-24T13:48:17;24.10;99.90
12655;DHT22;6392;44.644;11.448;2023-04-24T13:50:44;24.10;99.90
12655;DHT22;6392;44.644;11.448;2023-04-24T13:53:15;24.00;99.90
12655;DHT22;6392;44.644;11.448;2023-04-24T13:55:42;24.10;99.90
12655;DHT22;6392;44.644;11.448;2023-04-24T13:58:09;24.30;99.90
12655;DHT22;6392;44.644;11.448;2023-04-24T14:00:36;24.50;99.90
12655;DHT22;6392;44.644;11.448;2023-04-24T14:03:03;24.50;99.90
12655;DHT22;6392;44.644;11.448;2023-04-24T14:05:30;24.20;99.90
12655;DHT22;6392;44.644;11.448;2023-04-24T14:07:56;24.00;99.90
12655;DHT22;6392;44.644;11.448;2023-04-24T14:10:25;23.90;99.90
12655;DHT22;6392;44.644;11.448;2023-04-24T14:12:52;23.90;99.90
12655;DHT22;6392;44.644;11.448;2023-04-24T14:15:19;23.90;99.90
12655;DHT22;6392;44.644;11.448;2023-04-24T14:17:47;24.10;99.90
12655;DHT22;6392;44.644;11.448;2023-04-24T14:20:14;24.10;99.90
12655;DHT22;6392;44.644;11.448;2023-04-24T14:22:41;24.20;99.90
12655;DHT22;6392;44.644;11.448;2023-04-24T14:25:08;24.30;99.90
12655;DHT22;6392;44.644;11.448;2023-04-24T14:27:36;24.30;99.90
12655;DHT22;6392;44.644;11.448;2023-04-24T14:30:04;24.30;99.90
12655;DHT22;6392;44.644;11.448;2023-04-24T14:32:31;24.30;99.90
12655;DHT22;6392;44.644;11.448;2023-04-24T14:34:57;24.20;99.90
12655;DHT22;6392;44.644;11.448;2023-04-24T14:37:24;24.30;99.90
12655;DHT22;6392;44.644;11.448;2023-04-24T14:39:51;24.30;99.90
12655;DHT22;6392;44.644;11.448;2023-04-24T14:42:18;24.30;99.90
12655;DHT22;6392;44.644;11.448;2023-04-24T14:44:46;24.30;99.90
12655;DHT22;6392;44.644;11.448;2023-04-24T14:47:13;24.40;99.90
12655;DHT22;6392;44.644;11.448;2023-04-24T14:49:40;24.40;99.90
12655;DHT22;6392;44.644;11.448;2023-04-24T14:52:08;24.50;99.90
12655;DHT22;6392;44.644;11.448;2023-04-24T14:54:35;24.60;99.90
12655;DHT22;6392;44.644;11.448;2023-04-24T14:57:02;24.80;99.90
12655;DHT22;6392;44.644;11.448;2023-04-24T14:59:29;24.80;99.90
12655;DHT22;6392;44.644;11.448;2023-04-24T15:01:58;24.90;99.90
12655;DHT22;6392;44.644;11.448;2023-04-24T15:04:25;25.00;99.90
12655;DHT22;6392;44.644;11.448;2023-04-24T15:06:52;25.00;99.90
12655;DHT22;6392;44.644;11.448;2023-04-24T15:09:19;25.00;99.90
12655;DHT22;6392;44.644;11.448;2023-04-24T15:11:47;24.90;99.90
12655;DHT22;6392;44.644;11.448;2023-04-24T15:14:14;24.90;99.90
12655;DHT22;6392;44.644;11.448;2023-04-24T15:16:41;24.80;99.90
12655;DHT22;6392;44.644;11.448;2023-04-24T15:19:09;24.80;99.90
12655;DHT22;6392;44.644;11.448;2023-04-24T15:21:36;24.70;99.90
12655;DHT22;6392;44.644;11.448;2023-04-24T15:24:03;24.70;99.90
12655;DHT22;6392;44.644;11.448;2023-04-24T15:26:30;24.70;99.90
12655;DHT22;6392;44.644;11.448;2023-04-24T15:28:57;24.90;99.90
12655;DHT22;6392;44.644;11.448;2023-04-24T15:31:24;25.20;99.90
12655;DHT22;6392;44.644;11.448;2023-04-24T15:33:51;25.40;99.90
12655;DHT22;6392;44.644;11.448;2023-04-24T15:36:19;25.50;99.90